sensor_id;sensor_type;location;lat;lon;timestamp;P1;durP1;ratioP1;P2;durP2;ratioP2
25531;SDS011;13429;48.816;9.118;2024-03-06T00:01:34;4.78;;;3.30;;
25531;SDS011;13429;48.816;9.118;2024-03-06T00:04:00;8.18;;;3.45;;
25531;SDS011;13429;48.816;9.118;2024-03-06T00:06:28;5.80;;;3.28;;
25531;SDS011;13429;48.816;9.118;2024-03-06T00:08:55;5.57;;;3.10;;
25531;SDS011;13429;48.816;9.118;2024-03-06T00:11:21;5.18;;;2.85;;
25531;SDS011;13429;48.816;9.118;2024-03-06T00:13:46;4.45;;;3.33;;
25531;SDS011;13429;48.816;9.118;2024-03-06T00:16:13;5.80;;;3.33;;
25531;SDS011;13429;48.816;9.118;2024-03-06T00:18:38;4.20;;;2.78;;
25531;SDS011;13429;48.816;9.118;2024-03-06T00:21:05;3.58;;;2.88;;
25531;SDS011;13429;48.816;9.118;2024-03-06T00:23:31;4.30;;;2.80;;
25531;SDS011;13429;48.816;9.118;2024-03-06T00:25:57;6.72;;;3.35;;
25531;SDS011;13429;48.816;9.118;2024-03-06T00:28:23;4.05;;;2.33;;
25531;SDS011;13429;48.816;9.118;2024-03-06T00:30:49;4.85;;;3.00;;
25531;SDS011;13429;48.816;9.118;2024-03-06T00:33:15;3.97;;;2.80;;
25531;SDS011;13429;48.816;9.118;2024-03-06T00:35:40;4.15;;;2.75;;
25531;SDS011;13429;48.816;9.118;2024-03-06T00:38:06;4.10;;;2.75;;
25531;SDS011;13429;48.816;9.118;2024-03-06T00:40:32;5.55;;;2.92;;
25531;SDS011;13429;48.816;9.118;2024-03-06T00:42:58;5.57;;;3.60;;
25531;SDS011;13429;48.816;9.118;2024-03-06T00:45:24;8.98;;;3.30;;
25531;SDS011;13429;48.816;9.118;2024-03-06T00:47:50;5.57;;;3.00;;
25531;SDS011;13429;48.816;9.118;2024-03-06T00:50:15;7.35;;;3.25;;
25531;SDS011;13429;48.816;9.118;2024-03-06T00:52:42;4.55;;;3.17;;
25531;SDS011;13429;48.816;9.118;2024-03-06T00:55:08;7.68;;;3.00;;
25531;SDS011;13429;48.816;9.118;2024-03-06T00:57:35;5.55;;;3.67;;
25531;SDS011;13429;48.816;9.118;2024-03-06T01:00:01;4.97;;;2.85;;
25531;SDS011;13429;48.816;9.118;2024-03-06T01:02:39;6.63;;;3.88;;
25531;SDS011;13429;48.816;9.118;2024-03-06T01:05:05;4.95;;;3.25;;
25531;SDS011;13429;48.816;9.118;2024-03-06T01:07:34;6.20;;;3.22;;
25531;SDS011;13429;48.816;9.118;2024-03-06T01:10:02;6.78;;;4.07;;
25531;SDS011;13429;48.816;9.118;2024-03-06T01:12:28;7.00;;;3.90;;
25531;SDS011;13429;48.816;9.118;2024-03-06T01:14:54;7.07;;;4.10;;
25531;SDS011;13429;48.816;9.118;2024-03-06T01:17:20;6.90;;;4.47;;
25531;SDS011;13429;48.816;9.118;2024-03-06T01:19:46;6.88;;;4.13;;
25531;SDS011;13429;48.816;9.118;2024-03-06T01:22:12;4.47;;;3.13;;
25531;SDS011;13429;48.816;9.118;2024-03-06T01:24:40;8.02;;;3.72;;
25531;SDS011;13429;48.816;9.118;2024-03-06T01:27:06;9.75;;;3.92;;
25531;SDS011;13429;48.816;9.118;2024-03-06T01:29:31;7.40;;;4.20;;
25531;SDS011;13429;48.816;9.118;2024-03-06T01:31:57;5.60;;;3.38;;
25531;SDS011;13429;48.816;9.118;2024-03-06T01:34:23;5.10;;;3.17;;
25531;SDS011;13429;48.816;9.118;2024-03-06T01:36:50;5.28;;;3.28;;
25531;SDS011;13429;48.816;9.118;2024-03-06T01:39:16;4.22;;;3.03;;
25531;SDS011;13429;48.816;9.118;2024-03-06T01:41:48;6.90;;;3.55;;
25531;SDS011;13429;48.816;9.118;2024-03-06T01:44:16;8.05;;;3.85;;
25531;SDS011;13429;48.816;9.118;2024-03-06T01:46:46;5.95;;;3.65;;
25531;SDS011;13429;48.816;9.118;2024-03-06T01:49:12;8.32;;;3.70;;
25531;SDS011;13429;48.816;9.118;2024-03-06T01:51:43;8.20;;;5.15;;
25531;SDS011;13429;48.816;9.118;2024-03-06T01:54:13;8.45;;;5.18;;
25531;SDS011;13429;48.816;9.118;2024-03-06T01:56:39;8.05;;;5.43;;
25531;SDS011;13429;48.816;9.118;2024-03-06T01:59:29;9.35;;;5.50;;
25531;SDS011;13429;48.816;9.118;2024-03-06T02:01:55;8.38;;;6.15;;
25531;SDS011;13429;48.816;9.118;2024-03-06T02:04:21;8.23;;;4.90;;
25531;SDS011;13429;48.816;9.118;2024-03-06T02:06:48;6.20;;;4.00;;
25531;SDS011;13429;48.816;9.118;2024-03-06T02:09:14;7.97;;;4.53;;
25531;SDS011;13429;48.816;9.118;2024-03-06T02:11:40;5.95;;;3.80;;
25531;SDS011;13429;48.816;9.118;2024-03-06T02:14:06;6.25;;;4.13;;
25531;SDS011;13429;48.816;9.118;2024-03-06T02:16:35;9.63;;;4.35;;
25531;SDS011;13429;48.816;9.118;2024-03-06T02:19:01;8.95;;;4.18;;
25531;SDS011;13429;48.816;9.118;2024-03-06T02:21:26;5.72;;;3.83;;
25531;SDS011;13429;48.816;9.118;2024-03-06T02:23:52;10.02;;;4.68;;
25531;SDS011;13429;48.816;9.118;2024-03-06T02:26:19;4.32;;;3.42;;
25531;SDS011;13429;48.816;9.118;2024-03-06T02:28:53;7.68;;;4.53;;
25531;SDS011;13429;48.816;9.118;2024-03-06T02:31:19;5.43;;;3.67;;
25531;SDS011;13429;48.816;9.118;2024-03-06T02:33:46;6.45;;;3.83;;
25531;SDS011;13429;48.816;9.118;2024-03-06T02:36:22;9.40;;;4.20;;
25531;SDS011;13429;48.816;9.118;2024-03-06T02:38:47;7.97;;;4.32;;
25531;SDS011;13429;48.816;9.118;2024-03-06T02:41:14;6.80;;;4.68;;
25531;SDS011;13429;48.816;9.118;2024-03-06T02:43:40;6.93;;;4.65;;
25531;SDS011;13429;48.816;9.118;2024-03-06T02:46:06;7.95;;;4.35;;
25531;SDS011;13429;48.816;9.118;2024-03-06T02:48:32;9.25;;;4.18;;
25531;SDS011;13429;48.816;9.118;2024-03-06T02:50:58;4.30;;;3.47;;
25531;SDS011;13429;48.816;9.118;2024-03-06T02:53:25;6.28;;;3.55;;
25531;SDS011;13429;48.816;9.118;2024-03-06T02:55:51;8.18;;;4.07;;
25531;SDS011;13429;48.816;9.118;2024-03-06T02:58:17;6.03;;;3.70;;
25531;SDS011;13429;48.816;9.118;2024-03-06T03:00:43;6.28;;;3.35;;
25531;SDS011;13429;48.816;9.118;2024-03-06T03:03:09;6.00;;;3.70;;
25531;SDS011;13429;48.816;9.118;2024-03-06T03:05:37;6.57;;;4.38;;
25531;SDS011;13429;48.816;9.118;2024-03-06T03:08:03;6.90;;;4.05;;
25531;SDS011;13429;48.816;9.118;2024-03-06T03:10:30;7.03;;;4.03;;
25531;SDS011;13429;48.816;9.118;2024-03-06T03:12:56;4.40;;;3.65;;
25531;SDS011;13429;48.816;9.118;2024-03-06T03:15:21;3.35;;;3.00;;
25531;SDS011;13429;48.816;9.118;2024-03-06T03:17:47;4.10;;;3.28;;
25531;SDS011;13429;48.816;9.118;2024-03-06T03:20:13;5.53;;;4.30;;
25531;SDS011;13429;48.816;9.118;2024-03-06T03:22:42;7.85;;;4.25;;
25531;SDS011;13429;48.816;9.118;2024-03-06T03:25:09;4.45;;;3.15;;
25531;SDS011;13429;48.816;9.118;2024-03-06T03:27:36;6.63;;;3.40;;
25531;SDS011;13429;48.816;9.118;2024-03-06T03:30:03;5.97;;;4.07;;
25531;SDS011;13429;48.816;9.118;2024-03-06T03:32:30;8.35;;;4.28;;
25531;SDS011;13429;48.816;9.118;2024-03-06T03:34:55;7.72;;;4.47;;
25531;SDS011;13429;48.816;9.118;2024-03-06T03:37:21;6.15;;;4.30;;
25531;SDS011;13429;48.816;9.118;2024-03-06T03:39:47;7.43;;;4.20;;
25531;SDS011;13429;48.816;9.118;2024-03-06T03:42:12;5.68;;;4.00;;
25531;SDS011;13429;48.816;9.118;2024-03-06T03:44:38;7.93;;;4.50;;
25531;SDS011;13429;48.816;9.118;2024-03-06T03:47:04;5.90;;;4.00;;
25531;SDS011;13429;48.816;9.118;2024-03-06T03:49:30;6.05;;;3.38;;
25531;SDS011;13429;48.816;9.118;2024-03-06T03:51:56;7.18;;;4.05;;
25531;SDS011;13429;48.816;9.118;2024-03-06T03:54:21;6.55;;;3.75;;
25531;SDS011;13429;48.816;9.118;2024-03-06T03:56:47;5.47;;;3.47;;
25531;SDS011;13429;48.816;9.118;2024-03-06T03:59:13;4.50;;;3.97;;
25531;SDS011;13429;48.816;9.118;2024-03-06T04:01:39;9.23;;;4.20;;
25531;SDS011;13429;48.816;9.118;2024-03-06T04:04:04;5.70;;;3.92;;
25531;SDS011;13429;48.816;9.118;2024-03-06T04:06:32;6.85;;;4.25;;
25531;SDS011;13429;48.816;9.118;2024-03-06T04:08:57;6.72;;;4.13;;
25531;SDS011;13429;48.816;9.118;2024-03-06T04:11:23;6.65;;;4.88;;
25531;SDS011;13429;48.816;9.118;2024-03-06T04:13:48;6.15;;;4.18;;
25531;SDS011;13429;48.816;9.118;2024-03-06T04:16:17;4.63;;;3.95;;
25531;SDS011;13429;48.816;9.118;2024-03-06T04:18:43;9.73;;;5.53;;
25531;SDS011;13429;48.816;9.118;2024-03-06T04:21:10;9.38;;;5.10;;
25531;SDS011;13429;48.816;9.118;2024-03-06T04:23:36;7.20;;;4.68;;
25531;SDS011;13429;48.816;9.118;2024-03-06T04:26:02;11.43;;;5.70;;
25531;SDS011;13429;48.816;9.118;2024-03-06T04:28:28;7.85;;;5.40;;
25531;SDS011;13429;48.816;9.118;2024-03-06T04:30:55;9.45;;;5.10;;
25531;SDS011;13429;48.816;9.118;2024-03-06T04:33:21;10.95;;;6.22;;
25531;SDS011;13429;48.816;9.118;2024-03-06T04:35:47;8.43;;;5.13;;
25531;SDS011;13429;48.816;9.118;2024-03-06T04:38:13;7.32;;;5.38;;
25531;SDS011;13429;48.816;9.118;2024-03-06T04:40:39;7.68;;;5.10;;
25531;SDS011;13429;48.816;9.118;2024-03-06T04:43:04;6.93;;;5.00;;
25531;SDS011;13429;48.816;9.118;2024-03-06T04:45:31;7.20;;;5.60;;
25531;SDS011;13429;48.816;9.118;2024-03-06T04:47:57;8.60;;;5.40;;
25531;SDS011;13429;48.816;9.118;2024-03-06T04:50:23;8.02;;;5.15;;
25531;SDS011;13429;48.816;9.118;2024-03-06T04:52:49;6.57;;;4.90;;
25531;SDS011;13429;48.816;9.118;2024-03-06T04:55:14;5.68;;;4.85;;
25531;SDS011;13429;48.816;9.118;2024-03-06T04:57:45;9.18;;;5.93;;
25531;SDS011;13429;48.816;9.118;2024-03-06T05:00:11;7.65;;;4.97;;
25531;SDS011;13429;48.816;9.118;2024-03-06T05:02:37;7.47;;;4.47;;
25531;SDS011;13429;48.816;9.118;2024-03-06T05:05:03;6.88;;;5.15;;
25531;SDS011;13429;48.816;9.118;2024-03-06T05:07:29;6.53;;;4.60;;
25531;SDS011;13429;48.816;9.118;2024-03-06T05:09:56;10.30;;;5.50;;
25531;SDS011;13429;48.816;9.118;2024-03-06T05:12:23;7.07;;;4.47;;
25531;SDS011;13429;48.816;9.118;2024-03-06T05:14:50;7.45;;;4.80;;
25531;SDS011;13429;48.816;9.118;2024-03-06T05:17:16;9.38;;;4.93;;
25531;SDS011;13429;48.816;9.118;2024-03-06T05:19:42;6.22;;;4.63;;
25531;SDS011;13429;48.816;9.118;2024-03-06T05:22:09;7.50;;;5.28;;
25531;SDS011;13429;48.816;9.118;2024-03-06T05:24:36;6.88;;;4.88;;
25531;SDS011;13429;48.816;9.118;2024-03-06T05:27:05;10.80;;;5.32;;
25531;SDS011;13429;48.816;9.118;2024-03-06T05:29:31;11.40;;;5.30;;
25531;SDS011;13429;48.816;9.118;2024-03-06T05:31:56;12.10;;;6.47;;
25531;SDS011;13429;48.816;9.118;2024-03-06T05:34:22;9.52;;;5.20;;
25531;SDS011;13429;48.816;9.118;2024-03-06T05:36:48;8.13;;;6.05;;
25531;SDS011;13429;48.816;9.118;2024-03-06T05:39:14;7.63;;;5.25;;
25531;SDS011;13429;48.816;9.118;2024-03-06T05:41:40;9.45;;;6.63;;
25531;SDS011;13429;48.816;9.118;2024-03-06T05:44:06;9.48;;;6.30;;
25531;SDS011;13429;48.816;9.118;2024-03-06T05:46:32;10.18;;;5.65;;
25531;SDS011;13429;48.816;9.118;2024-03-06T05:48:58;10.35;;;5.70;;
25531;SDS011;13429;48.816;9.118;2024-03-06T05:51:24;10.68;;;6.78;;
25531;SDS011;13429;48.816;9.118;2024-03-06T05:53:50;10.35;;;6.40;;
25531;SDS011;13429;48.816;9.118;2024-03-06T05:56:19;10.90;;;6.30;;
25531;SDS011;13429;48.816;9.118;2024-03-06T05:58:45;11.32;;;6.45;;
25531;SDS011;13429;48.816;9.118;2024-03-06T06:01:17;11.65;;;6.85;;
25531;SDS011;13429;48.816;9.118;2024-03-06T06:03:49;11.18;;;6.03;;
25531;SDS011;13429;48.816;9.118;2024-03-06T06:06:15;8.85;;;5.72;;
25531;SDS011;13429;48.816;9.118;2024-03-06T06:08:41;11.50;;;7.25;;
25531;SDS011;13429;48.816;9.118;2024-03-06T06:11:09;12.32;;;6.75;;
25531;SDS011;13429;48.816;9.118;2024-03-06T06:13:35;12.05;;;6.32;;
25531;SDS011;13429;48.816;9.118;2024-03-06T06:16:00;12.27;;;7.00;;
25531;SDS011;13429;48.816;9.118;2024-03-06T06:18:29;9.63;;;6.10;;
25531;SDS011;13429;48.816;9.118;2024-03-06T06:20:57;8.95;;;6.32;;
25531;SDS011;13429;48.816;9.118;2024-03-06T06:23:23;12.75;;;7.72;;
25531;SDS011;13429;48.816;9.118;2024-03-06T06:25:49;10.75;;;7.30;;
25531;SDS011;13429;48.816;9.118;2024-03-06T06:28:15;13.80;;;8.50;;
25531;SDS011;13429;48.816;9.118;2024-03-06T06:30:40;12.57;;;8.20;;
25531;SDS011;13429;48.816;9.118;2024-03-06T06:33:06;13.50;;;7.85;;
25531;SDS011;13429;48.816;9.118;2024-03-06T06:35:33;13.80;;;8.05;;
25531;SDS011;13429;48.816;9.118;2024-03-06T06:37:59;10.65;;;7.10;;
25531;SDS011;13429;48.816;9.118;2024-03-06T06:40:26;10.80;;;7.47;;
25531;SDS011;13429;48.816;9.118;2024-03-06T06:42:53;14.10;;;8.13;;
25531;SDS011;13429;48.816;9.118;2024-03-06T06:45:19;12.35;;;8.30;;
25531;SDS011;13429;48.816;9.118;2024-03-06T06:47:47;15.02;;;9.00;;
25531;SDS011;13429;48.816;9.118;2024-03-06T06:50:13;8.85;;;6.47;;
25531;SDS011;13429;48.816;9.118;2024-03-06T06:52:40;11.80;;;7.30;;
25531;SDS011;13429;48.816;9.118;2024-03-06T06:55:06;10.80;;;6.90;;
25531;SDS011;13429;48.816;9.118;2024-03-06T06:57:34;9.73;;;6.30;;
25531;SDS011;13429;48.816;9.118;2024-03-06T07:00:00;9.63;;;6.03;;
25531;SDS011;13429;48.816;9.118;2024-03-06T07:02:41;11.98;;;6.57;;
25531;SDS011;13429;48.816;9.118;2024-03-06T07:05:07;9.70;;;5.93;;
25531;SDS011;13429;48.816;9.118;2024-03-06T07:07:34;10.38;;;5.97;;
25531;SDS011;13429;48.816;9.118;2024-03-06T07:10:01;13.02;;;6.15;;
25531;SDS011;13429;48.816;9.118;2024-03-06T07:12:28;9.95;;;5.97;;
25531;SDS011;13429;48.816;9.118;2024-03-06T07:14:53;12.07;;;6.95;;
25531;SDS011;13429;48.816;9.118;2024-03-06T07:17:19;10.70;;;6.22;;
25531;SDS011;13429;48.816;9.118;2024-03-06T07:19:44;11.18;;;6.38;;
25531;SDS011;13429;48.816;9.118;2024-03-06T07:22:10;9.88;;;6.22;;
25531;SDS011;13429;48.816;9.118;2024-03-06T07:24:36;9.75;;;5.70;;
25531;SDS011;13429;48.816;9.118;2024-03-06T07:27:02;10.48;;;5.85;;
25531;SDS011;13429;48.816;9.118;2024-03-06T07:29:28;15.88;;;6.40;;
25531;SDS011;13429;48.816;9.118;2024-03-06T07:31:54;10.40;;;6.45;;
25531;SDS011;13429;48.816;9.118;2024-03-06T07:34:19;10.82;;;6.97;;
25531;SDS011;13429;48.816;9.118;2024-03-06T07:36:47;9.98;;;6.00;;
25531;SDS011;13429;48.816;9.118;2024-03-06T07:39:14;14.50;;;7.32;;
25531;SDS011;13429;48.816;9.118;2024-03-06T07:41:41;9.77;;;5.88;;
25531;SDS011;13429;48.816;9.118;2024-03-06T07:44:07;9.50;;;6.45;;
25531;SDS011;13429;48.816;9.118;2024-03-06T07:46:33;10.30;;;6.20;;
25531;SDS011;13429;48.816;9.118;2024-03-06T07:49:00;9.32;;;6.05;;
25531;SDS011;13429;48.816;9.118;2024-03-06T07:51:28;8.73;;;5.90;;
25531;SDS011;13429;48.816;9.118;2024-03-06T07:53:58;10.95;;;6.43;;
25531;SDS011;13429;48.816;9.118;2024-03-06T07:56:27;9.60;;;6.20;;
25531;SDS011;13429;48.816;9.118;2024-03-06T07:58:53;10.00;;;6.53;;
25531;SDS011;13429;48.816;9.118;2024-03-06T08:01:19;10.73;;;6.00;;
25531;SDS011;13429;48.816;9.118;2024-03-06T08:03:48;8.88;;;5.88;;
25531;SDS011;13429;48.816;9.118;2024-03-06T08:06:18;10.07;;;6.32;;
25531;SDS011;13429;48.816;9.118;2024-03-06T08:08:44;12.68;;;6.00;;
25531;SDS011;13429;48.816;9.118;2024-03-06T08:11:10;9.70;;;5.32;;
25531;SDS011;13429;48.816;9.118;2024-03-06T08:13:40;9.48;;;5.53;;
25531;SDS011;13429;48.816;9.118;2024-03-06T08:16:06;8.48;;;5.38;;
25531;SDS011;13429;48.816;9.118;2024-03-06T08:18:33;7.30;;;5.80;;
25531;SDS011;13429;48.816;9.118;2024-03-06T08:21:00;7.70;;;5.22;;
25531;SDS011;13429;48.816;9.118;2024-03-06T08:23:31;15.20;;;5.90;;
25531;SDS011;13429;48.816;9.118;2024-03-06T08:25:58;8.18;;;5.57;;
25531;SDS011;13429;48.816;9.118;2024-03-06T08:28:25;10.48;;;5.88;;
25531;SDS011;13429;48.816;9.118;2024-03-06T08:30:50;8.25;;;4.90;;
25531;SDS011;13429;48.816;9.118;2024-03-06T08:33:17;7.07;;;5.22;;
25531;SDS011;13429;48.816;9.118;2024-03-06T08:35:43;7.32;;;5.13;;
25531;SDS011;13429;48.816;9.118;2024-03-06T08:38:08;7.70;;;5.50;;
25531;SDS011;13429;48.816;9.118;2024-03-06T08:40:34;10.82;;;6.00;;
25531;SDS011;13429;48.816;9.118;2024-03-06T08:43:00;8.32;;;5.75;;
25531;SDS011;13429;48.816;9.118;2024-03-06T08:45:25;10.07;;;5.65;;
25531;SDS011;13429;48.816;9.118;2024-03-06T08:47:51;7.80;;;5.25;;
25531;SDS011;13429;48.816;9.118;2024-03-06T08:50:19;10.30;;;5.68;;
25531;SDS011;13429;48.816;9.118;2024-03-06T08:52:45;9.18;;;5.32;;
25531;SDS011;13429;48.816;9.118;2024-03-06T08:55:12;7.80;;;5.53;;
25531;SDS011;13429;48.816;9.118;2024-03-06T08:57:38;8.82;;;5.38;;
25531;SDS011;13429;48.816;9.118;2024-03-06T09:00:04;10.20;;;6.70;;
25531;SDS011;13429;48.816;9.118;2024-03-06T09:02:37;9.40;;;6.13;;
25531;SDS011;13429;48.816;9.118;2024-03-06T09:05:04;7.40;;;5.68;;
25531;SDS011;13429;48.816;9.118;2024-03-06T09:07:31;10.18;;;6.82;;
25531;SDS011;13429;48.816;9.118;2024-03-06T09:10:02;11.73;;;5.88;;
25531;SDS011;13429;48.816;9.118;2024-03-06T09:12:29;8.00;;;5.68;;
25531;SDS011;13429;48.816;9.118;2024-03-06T09:14:55;11.43;;;6.20;;
25531;SDS011;13429;48.816;9.118;2024-03-06T09:17:21;13.93;;;6.13;;
25531;SDS011;13429;48.816;9.118;2024-03-06T09:19:46;7.97;;;6.03;;
25531;SDS011;13429;48.816;9.118;2024-03-06T09:22:12;8.95;;;5.90;;
25531;SDS011;13429;48.816;9.118;2024-03-06T09:24:37;12.43;;;6.43;;
25531;SDS011;13429;48.816;9.118;2024-03-06T09:27:03;8.10;;;5.90;;
25531;SDS011;13429;48.816;9.118;2024-03-06T09:29:29;8.48;;;6.07;;
25531;SDS011;13429;48.816;9.118;2024-03-06T09:31:55;12.63;;;6.70;;
25531;SDS011;13429;48.816;9.118;2024-03-06T09:34:21;14.32;;;7.38;;
25531;SDS011;13429;48.816;9.118;2024-03-06T09:36:48;15.02;;;7.18;;
25531;SDS011;13429;48.816;9.118;2024-03-06T09:39:15;10.43;;;7.25;;
25531;SDS011;13429;48.816;9.118;2024-03-06T09:41:49;11.10;;;7.97;;
25531;SDS011;13429;48.816;9.118;2024-03-06T09:44:15;13.00;;;8.32;;
25531;SDS011;13429;48.816;9.118;2024-03-06T09:46:46;12.15;;;9.02;;
25531;SDS011;13429;48.816;9.118;2024-03-06T09:49:13;16.23;;;8.95;;
25531;SDS011;13429;48.816;9.118;2024-03-06T09:51:47;12.30;;;10.02;;
25531;SDS011;13429;48.816;9.118;2024-03-06T09:54:17;11.68;;;9.52;;
25531;SDS011;13429;48.816;9.118;2024-03-06T09:56:45;14.50;;;10.77;;
25531;SDS011;13429;48.816;9.118;2024-03-06T09:59:14;12.73;;;9.10;;
25531;SDS011;13429;48.816;9.118;2024-03-06T10:01:49;11.90;;;9.82;;
25531;SDS011;13429;48.816;9.118;2024-03-06T10:04:23;15.98;;;10.35;;
25531;SDS011;13429;48.816;9.118;2024-03-06T10:06:50;12.75;;;10.52;;
25531;SDS011;13429;48.816;9.118;2024-03-06T10:09:19;14.68;;;10.75;;
25531;SDS011;13429;48.816;9.118;2024-03-06T10:11:45;15.75;;;10.57;;
25531;SDS011;13429;48.816;9.118;2024-03-06T10:14:11;14.00;;;10.88;;
25531;SDS011;13429;48.816;9.118;2024-03-06T10:16:37;12.73;;;10.00;;
25531;SDS011;13429;48.816;9.118;2024-03-06T10:19:17;15.90;;;11.38;;
25531;SDS011;13429;48.816;9.118;2024-03-06T10:21:43;14.80;;;11.27;;
25531;SDS011;13429;48.816;9.118;2024-03-06T10:24:19;16.42;;;11.85;;
25531;SDS011;13429;48.816;9.118;2024-03-06T10:26:54;16.88;;;12.10;;
25531;SDS011;13429;48.816;9.118;2024-03-06T10:29:21;19.67;;;14.02;;
25531;SDS011;13429;48.816;9.118;2024-03-06T10:31:48;21.80;;;15.98;;
25531;SDS011;13429;48.816;9.118;2024-03-06T10:34:16;20.20;;;15.13;;
25531;SDS011;13429;48.816;9.118;2024-03-06T10:36:42;20.58;;;14.25;;
25531;SDS011;13429;48.816;9.118;2024-03-06T10:39:08;18.02;;;14.25;;
25531;SDS011;13429;48.816;9.118;2024-03-06T10:41:40;19.58;;;15.57;;
25531;SDS011;13429;48.816;9.118;2024-03-06T10:44:13;19.75;;;15.57;;
25531;SDS011;13429;48.816;9.118;2024-03-06T10:46:40;21.50;;;17.40;;
25531;SDS011;13429;48.816;9.118;2024-03-06T10:49:09;24.05;;;16.63;;
25531;SDS011;13429;48.816;9.118;2024-03-06T10:51:37;20.27;;;15.48;;
25531;SDS011;13429;48.816;9.118;2024-03-06T10:54:07;19.08;;;16.10;;
25531;SDS011;13429;48.816;9.118;2024-03-06T10:56:34;22.88;;;15.90;;
25531;SDS011;13429;48.816;9.118;2024-03-06T10:59:00;22.52;;;15.93;;
25531;SDS011;13429;48.816;9.118;2024-03-06T11:01:27;22.60;;;17.63;;
25531;SDS011;13429;48.816;9.118;2024-03-06T11:03:57;23.40;;;18.17;;
25531;SDS011;13429;48.816;9.118;2024-03-06T11:06:25;21.27;;;15.93;;
25531;SDS011;13429;48.816;9.118;2024-03-06T11:08:51;24.02;;;18.00;;
25531;SDS011;13429;48.816;9.118;2024-03-06T11:11:20;22.95;;;17.73;;
25531;SDS011;13429;48.816;9.118;2024-03-06T11:13:50;22.95;;;18.17;;
25531;SDS011;13429;48.816;9.118;2024-03-06T11:16:20;23.25;;;17.38;;
25531;SDS011;13429;48.816;9.118;2024-03-06T11:18:59;24.25;;;19.42;;
25531;SDS011;13429;48.816;9.118;2024-03-06T11:21:33;28.65;;;20.92;;
25531;SDS011;13429;48.816;9.118;2024-03-06T11:26:36;31.25;;;22.52;;
25531;SDS011;13429;48.816;9.118;2024-03-06T11:29:02;27.10;;;21.30;;
25531;SDS011;13429;48.816;9.118;2024-03-06T11:31:28;30.45;;;21.13;;
25531;SDS011;13429;48.816;9.118;2024-03-06T11:33:53;31.98;;;22.67;;
25531;SDS011;13429;48.816;9.118;2024-03-06T11:36:27;31.23;;;22.42;;
25531;SDS011;13429;48.816;9.118;2024-03-06T11:41:29;32.55;;;23.13;;
25531;SDS011;13429;48.816;9.118;2024-03-06T11:43:56;29.35;;;22.58;;
25531;SDS011;13429;48.816;9.118;2024-03-06T11:49:19;29.60;;;22.15;;
25531;SDS011;13429;48.816;9.118;2024-03-06T11:51:51;29.23;;;23.27;;
25531;SDS011;13429;48.816;9.118;2024-03-06T11:54:18;28.50;;;21.42;;
25531;SDS011;13429;48.816;9.118;2024-03-06T11:56:48;32.78;;;22.30;;
25531;SDS011;13429;48.816;9.118;2024-03-06T11:59:16;29.30;;;21.90;;
25531;SDS011;13429;48.816;9.118;2024-03-06T12:01:42;27.90;;;20.92;;
25531;SDS011;13429;48.816;9.118;2024-03-06T12:04:08;28.05;;;21.58;;
25531;SDS011;13429;48.816;9.118;2024-03-06T12:06:34;32.35;;;21.95;;
25531;SDS011;13429;48.816;9.118;2024-03-06T12:09:00;28.67;;;21.58;;
25531;SDS011;13429;48.816;9.118;2024-03-06T12:11:26;31.55;;;22.33;;
25531;SDS011;13429;48.816;9.118;2024-03-06T12:13:53;34.80;;;24.27;;
25531;SDS011;13429;48.816;9.118;2024-03-06T12:16:20;36.95;;;24.52;;
25531;SDS011;13429;48.816;9.118;2024-03-06T12:18:46;32.90;;;23.55;;
25531;SDS011;13429;48.816;9.118;2024-03-06T12:21:18;34.95;;;25.25;;
25531;SDS011;13429;48.816;9.118;2024-03-06T12:23:44;31.35;;;23.75;;
25531;SDS011;13429;48.816;9.118;2024-03-06T12:26:09;33.05;;;24.45;;
25531;SDS011;13429;48.816;9.118;2024-03-06T12:28:38;36.17;;;26.35;;
25531;SDS011;13429;48.816;9.118;2024-03-06T12:31:04;34.83;;;24.65;;
25531;SDS011;13429;48.816;9.118;2024-03-06T12:33:32;35.65;;;23.75;;
25531;SDS011;13429;48.816;9.118;2024-03-06T12:36:08;37.47;;;25.58;;
25531;SDS011;13429;48.816;9.118;2024-03-06T12:38:36;37.50;;;25.63;;
25531;SDS011;13429;48.816;9.118;2024-03-06T12:41:03;30.75;;;23.70;;
25531;SDS011;13429;48.816;9.118;2024-03-06T12:43:29;34.58;;;24.10;;
25531;SDS011;13429;48.816;9.118;2024-03-06T12:45:55;35.58;;;25.15;;
25531;SDS011;13429;48.816;9.118;2024-03-06T12:48:22;37.50;;;24.00;;
25531;SDS011;13429;48.816;9.118;2024-03-06T12:50:48;34.40;;;24.25;;
25531;SDS011;13429;48.816;9.118;2024-03-06T12:53:20;31.42;;;23.10;;
25531;SDS011;13429;48.816;9.118;2024-03-06T12:55:47;30.20;;;23.17;;
25531;SDS011;13429;48.816;9.118;2024-03-06T12:58:13;31.73;;;24.38;;
25531;SDS011;13429;48.816;9.118;2024-03-06T13:00:40;30.52;;;21.95;;
25531;SDS011;13429;48.816;9.118;2024-03-06T13:03:06;28.17;;;21.92;;
25531;SDS011;13429;48.816;9.118;2024-03-06T13:05:32;28.40;;;21.90;;
25531;SDS011;13429;48.816;9.118;2024-03-06T13:07:58;29.90;;;21.83;;
25531;SDS011;13429;48.816;9.118;2024-03-06T13:10:27;23.92;;;19.45;;
25531;SDS011;13429;48.816;9.118;2024-03-06T13:12:53;30.20;;;22.38;;
25531;SDS011;13429;48.816;9.118;2024-03-06T13:15:19;29.60;;;22.20;;
25531;SDS011;13429;48.816;9.118;2024-03-06T13:17:45;27.85;;;20.95;;
25531;SDS011;13429;48.816;9.118;2024-03-06T13:20:11;33.13;;;21.25;;
25531;SDS011;13429;48.816;9.118;2024-03-06T13:22:39;38.78;;;26.20;;
25531;SDS011;13429;48.816;9.118;2024-03-06T13:25:05;32.85;;;25.30;;
25531;SDS011;13429;48.816;9.118;2024-03-06T13:27:32;31.17;;;23.48;;
25531;SDS011;13429;48.816;9.118;2024-03-06T13:29:57;30.42;;;21.02;;
25531;SDS011;13429;48.816;9.118;2024-03-06T13:32:23;29.10;;;20.25;;
25531;SDS011;13429;48.816;9.118;2024-03-06T13:34:49;32.72;;;21.58;;
25531;SDS011;13429;48.816;9.118;2024-03-06T13:37:15;30.58;;;22.67;;
25531;SDS011;13429;48.816;9.118;2024-03-06T13:39:41;31.05;;;22.10;;
25531;SDS011;13429;48.816;9.118;2024-03-06T13:42:07;32.67;;;24.55;;
25531;SDS011;13429;48.816;9.118;2024-03-06T13:44:33;29.33;;;22.48;;
25531;SDS011;13429;48.816;9.118;2024-03-06T13:47:02;30.50;;;21.40;;
25531;SDS011;13429;48.816;9.118;2024-03-06T13:52:05;28.85;;;22.42;;
25531;SDS011;13429;48.816;9.118;2024-03-06T13:54:32;30.58;;;23.20;;
25531;SDS011;13429;48.816;9.118;2024-03-06T13:56:59;33.13;;;24.63;;
25531;SDS011;13429;48.816;9.118;2024-03-06T13:59:31;35.28;;;26.67;;
25531;SDS011;13429;48.816;9.118;2024-03-06T14:01:57;35.25;;;24.58;;
25531;SDS011;13429;48.816;9.118;2024-03-06T14:04:24;36.78;;;25.83;;
25531;SDS011;13429;48.816;9.118;2024-03-06T14:06:50;34.85;;;25.10;;
25531;SDS011;13429;48.816;9.118;2024-03-06T14:09:15;38.78;;;25.92;;
25531;SDS011;13429;48.816;9.118;2024-03-06T14:11:41;34.88;;;25.85;;
25531;SDS011;13429;48.816;9.118;2024-03-06T14:14:07;32.70;;;23.90;;
25531;SDS011;13429;48.816;9.118;2024-03-06T14:16:34;28.83;;;21.85;;
25531;SDS011;13429;48.816;9.118;2024-03-06T14:19:00;30.10;;;22.75;;
25531;SDS011;13429;48.816;9.118;2024-03-06T14:21:26;30.08;;;23.13;;
25531;SDS011;13429;48.816;9.118;2024-03-06T14:23:52;27.63;;;21.58;;
25531;SDS011;13429;48.816;9.118;2024-03-06T14:26:17;26.67;;;22.17;;
25531;SDS011;13429;48.816;9.118;2024-03-06T14:28:43;28.67;;;21.80;;
25531;SDS011;13429;48.816;9.118;2024-03-06T14:31:09;29.15;;;22.35;;
25531;SDS011;13429;48.816;9.118;2024-03-06T14:33:35;32.40;;;22.92;;
25531;SDS011;13429;48.816;9.118;2024-03-06T14:36:03;29.48;;;23.23;;
25531;SDS011;13429;48.816;9.118;2024-03-06T14:38:28;30.73;;;22.00;;
25531;SDS011;13429;48.816;9.118;2024-03-06T14:40:54;26.58;;;21.25;;
25531;SDS011;13429;48.816;9.118;2024-03-06T14:43:20;26.27;;;21.80;;
25531;SDS011;13429;48.816;9.118;2024-03-06T14:45:45;29.70;;;22.85;;